ADDS METAR Data INFO
IDs: Format: Raw Decoded Include TAF

Data at: 1523 UTC 18 Jun 2018

PFWS 181456Z AUTO 16004KT 6SM -RA BR OVC014 09/09 A2937 RMK AO2 SLP952 P0002 60006 T00890089 53004
PFWS 181412Z AUTO 16003KT 5SM -RA BR OVC014 09/09 A2936 RMK AO2 P0000
PFWS 181356Z AUTO 12003KT 10SM -RA BKN016 BKN021 OVC070 08/08 A2936 RMK AO2 SLP947 P0001 T00830083
PFWS 181348Z AUTO 12003KT 10SM -RA SCT016 BKN021 OVC070 08/08 A2936 RMK AO2 P0001
PFWS 181156Z AUTO 00000KT 7SM RA OVC044 09/08 A2936 RMK AO2 SLP948 P0004 60015 70016 T00890083 10106 20089 56024
PFWS 181056Z AUTO 06003KT 10SM -RA OVC040 09/08 A2938 RMK AO2 SLP955 P0002 T00890083
PFWS 180956Z AUTO 05008KT 10SM -RA SCT038 BKN065 OVC095 09/08 A2940 RMK AO2 SLP962 P0002 T00890083
PFWS 180856Z AUTO 05010KT 10SM -RA BKN060 OVC075 09/08 A2943 RMK AO2 SLP972 P0002 60007 T00890083 401560083 56037
PFWS 180756Z AUTO 06011KT 10SM -RA OVC065 09/08 A2947 RMK AO2 SLP984 P0004 T00890083
PFWS 180656Z AUTO 04014KT 10SM -RA FEW041 OVC080 09/09 A2950 RMK AO2 SLP995 P0001 T00940089
PFWS 180556Z AUTO 05009KT 10SM -RA BKN060 OVC075 11/09 A2954 RMK AO2 SLP008 P0000 60000 T01060089 10156 20106 58036
PFWS 180456Z AUTO 09013KT 10SM -RA BKN070 OVC085 11/08 A2958 RMK AO2 RAB41 SLP022 P0000 T01110083
PFWS 180356Z AUTO 09014KT 10SM SCT120 13/07 A2960 RMK AO2 SLP031 T01280072
PFWS 180256Z AUTO 09011KT 10SM BKN060 13/08 A2964 RMK AO2 SLP044 T01330078 58020
PFWS 180156Z AUTO 06010KT 10SM FEW043 16/07 A2966 RMK AO2 WSHFT 0113 SLP050 T01560067
PFWS 180133Z AUTO 07008G20KT 8SM FEW043 SCT080 14/07 A2967 RMK AO2 WSHFT 0113
PFWS 180056Z AUTO 15009G18KT 10SM BKN075 OVC100 14/06 A2969 RMK AO2 SLP059 T01440061
PFWS 172356Z AUTO 15010KT 10SM OVC085 12/07 A2970 RMK AO2 PK WND 15026/2257 RAB39E52 SLP064 P0000 60001 T01220072 10133 20100 55004
PFWS 172256Z AUTO 17019G27KT 10SM OVC100 12/06 A2969 RMK AO2 PK WND 15031/2224 SLP062 T01220061
PFWS 172208Z AUTO 16019G30KT 10SM SCT026 BKN100 13/07 A2971 RMK AO2 PK WND 16030/2204
PFWS 172156Z AUTO 16021G32KT 10SM BKN026 OVC100 13/07 A2971 RMK AO2 PK WND 16035/2110 SLP066 T01330072
PFWS 172112Z AUTO 16029G35KT 10SM BKN028 BKN033 OVC100 13/07 A2971 RMK AO2 PK WND 16035/2110
PFWS 172056Z AUTO 16021G38KT 10SM BKN030 OVC035 12/07 A2971 RMK AO2 PK WND 16038/2048 SLP068 60001 T01220067 53007
PFWS 172048Z AUTO 16031G38KT 10SM BKN030 OVC035 12/07 A2971 RMK AO2 PK WND 16038/2048
PFWS 172037Z AUTO 16021G32KT 10SM BKN028 BKN033 OVC110 12/07 A2971 RMK AO2 PK WND 15038/1957
PFWS 171956Z AUTO 15032G39KT 10SM FEW075 12/07 A2969 RMK AO2 PK WND 16039/1951 SLP060 P0001 T01220067
PFWS 171930Z AUTO 16027G34KT 10SM SCT027 BKN075 OVC085 11/06 A2969 RMK AO2 PK WND 16034/1927
PFWS 171909Z AUTO 15022G27KT 10SM BKN027 OVC110 11/07 A2969 RMK AO2 PK WND 15027/1908
PFWS 171756Z AUTO 15011KT 10SM OVC027 10/07 A2968 RMK AO2 SLP058 60000 T01000067 10100 20083 53010
PFWS 171714Z AUTO 15018G24KT 10SM BKN025 OVC110 09/06 A2967 RMK AO2
PFWS 171656Z AUTO 15017G28KT 10SM FEW029 BKN110 09/06 A2967 RMK AO2 PK WND 14030/1622 SLP052 T00940061
PFWS 171556Z AUTO 14021G28KT 10SM OVC075 08/07 A2966 RMK AO2 PK WND 13029/1540 RAE53 SLP051 P0000 T00830067
PFWS 171356Z AUTO 15026G31KT 10SM OVC075 09/06 A2965 RMK AO2 PK WND 16031/1356 SLP046 T00890061
PFWS 171256Z AUTO 15019G30KT 10SM FEW017 OVC060 09/07 A2965 RMK AO2 PK WND 15030/1250 SLP047 T00890067
PFWS 171156Z AUTO 15019G26KT 10SM OVC060 09/07 A2965 RMK AO2 PK WND 15028/1117 SLP046 60004 70005 T00890067 10094 20083 53012
PFWS 171056Z AUTO 16021G27KT 10SM OVC060 09/07 A2964 RMK AO2 PK WND 16027/1056 SLP043 T00890067
PFWS 170956Z AUTO 14018G24KT 10SM OVC060 08/07 A2962 RMK AO2 PK WND 15026/0912 RAE48 SLP037 P0001 T00830072
PFWS 170856Z AUTO 14018G24KT 10SM -RA OVC065 08/07 A2961 RMK AO2 PK WND 15026/0842 SLP035 P0001 60003 T00830072 401280083 53013
PFWS 170756Z AUTO 15019G26KT 10SM -RA OVC065 09/07 A2960 RMK AO2 PK WND 16027/0743 SLP029 P0001 T00890072
PFWS 170656Z AUTO 15018G26KT 10SM -RA OVC070 09/07 A2958 RMK AO2 PK WND 15027/0646 SLP024 P0001 T00890072
PFWS 170556Z AUTO 15018G25KT 10SM -RA OVC065 09/08 A2958 RMK AO2 PK WND 16026/0521 RAB10 SLP021 P0000 60000 T00940078 10128 20094 51005
PFWS 170456Z AUTO 15018G28KT 10SM SCT021 BKN065 BKN110 10/07 A2957 RMK AO2 PK WND 15031/0432 SLP020 T01000067
PFWS 170426Z AUTO 15019G31KT 10SM BKN023 BKN048 OVC085 11/07 A2957 RMK AO2 PK WND 16031/0420
PFWS 170356Z AUTO 15024G31KT 10SM BKN023 BKN070 11/07 A2956 RMK AO2 PK WND 16031/0356 SLP016 T01110072